Time;durP1;ratioP1;P1;durP2;ratioP2;P2;SDS_P1;SDS_P2;PMS_P1;PMS_P2;Temp;Humidity;BMP_temperature;BMP_pressure;BME280_temperature;BME280_humidity;BME280_pressure;Samples;Min_cycle;Max_cycle;Signal;HPM_P1;HPM_P2
2023/03/28 00:01:54;;;;;;;8.52;1.90;;;3.60;99.90;;;;;;5097467;28;20084;-79
2023/03/28 00:04:23;;;;;;;9.90;1.77;;;4.20;99.90;;;;;;5131291;28;20043;-78
2023/03/28 00:06:49;;;;;;;11.45;1.98;;;2.80;99.90;;;;;;5089963;28;20493;-78
2023/03/28 00:09:16;;;;;;;13.52;2.22;;;3.70;99.90;;;;;;5115722;28;20407;-78
2023/03/28 00:11:43;;;;;;;8.38;1.50;;;3.50;99.90;;;;;;5094793;28;20063;-78
2023/03/28 00:14:09;;;;;;;10.32;1.75;;;3.90;99.90;;;;;;5112066;28;20054;-79
2023/03/28 00:16:37;;;;;;;11.65;1.90;;;2.90;99.90;;;;;;5104651;28;20023;-79
2023/03/28 00:19:05;;;;;;;20.42;2.08;;;3.00;99.90;;;;;;5098366;28;20118;-78
2023/03/28 00:21:34;;;;;;;9.98;2.03;;;2.80;99.90;;;;;;5116606;28;20035;-78
2023/03/28 00:24:03;;;;;;;9.20;2.03;;;2.90;99.90;;;;;;5094480;28;20070;-78
2023/03/28 00:26:31;;;;;;;7.60;1.88;;;4.30;99.90;;;;;;5113054;28;20058;-78
2023/03/28 00:28:57;;;;;;;13.00;2.00;;;2.80;99.90;;;;;;5116281;28;20031;-79
2023/03/28 00:31:25;;;;;;;12.40;2.10;;;2.90;99.90;;;;;;5095765;28;20042;-78
2023/03/28 00:33:51;;;;;;;6.65;1.88;;;2.80;99.90;;;;;;5113422;28;20055;-79
2023/03/28 00:36:21;;;;;;;13.23;2.03;;;2.80;99.90;;;;;;5088542;28;20040;-79
2023/03/28 00:38:52;;;;;;;9.65;2.00;;;3.00;99.90;;;;;;5094078;28;20043;-79
2023/03/28 00:41:22;;;;;;;9.73;2.00;;;2.80;99.90;;;;;;5108463;28;20539;-79
2023/03/28 00:43:51;;;;;;;12.02;1.95;;;2.80;99.90;;;;;;5107158;28;20035;-78
2023/03/28 00:46:40;;;;;;;13.77;2.42;;;2.30;99.90;;;;;;5102025;28;20067;-78
2023/03/28 00:49:23;;;;;;;8.80;1.65;;;2.80;99.90;;;;;;5097234;27;20046;-78
2023/03/28 00:51:56;;;;;;;10.40;1.80;;;2.70;99.90;;;;;;5098551;28;20153;-78
2023/03/28 00:54:25;;;;;;;8.77;1.92;;;2.50;99.90;;;;;;5100988;27;20109;-79
2023/03/28 00:56:54;;;;;;;12.50;2.05;;;2.50;99.90;;;;;;5114759;28;20089;-79
2023/03/28 00:59:23;;;;;;;10.70;1.85;;;3.00;99.90;;;;;;5096464;27;20043;-78
2023/03/28 01:01:49;;;;;;;11.95;2.30;;;2.40;99.90;;;;;;5092117;27;20047;-79
2023/03/28 01:04:19;;;;;;;20.10;2.90;;;2.40;99.90;;;;;;5094181;27;20054;-79
2023/03/28 01:06:47;;;;;;;12.35;1.90;;;2.30;99.90;;;;;;5096682;28;20046;-78
2023/03/28 01:09:15;;;;;;;13.20;2.05;;;2.30;99.90;;;;;;5108421;28;20043;-78
2023/03/28 01:11:44;;;;;;;9.07;2.00;;;2.40;99.90;;;;;;5114425;27;20080;-79
2023/03/28 01:14:14;;;;;;;10.85;2.17;;;2.50;99.90;;;;;;5099989;27;20538;-79
2023/03/28 01:16:40;;;;;;;13.38;2.33;;;2.40;99.90;;;;;;5094936;27;20049;-79
2023/03/28 01:19:20;;;;;;;12.48;2.40;;;2.40;99.90;;;;;;5098062;27;20043;-78
2023/03/28 01:22:01;;;;;;;12.13;2.00;;;2.30;99.90;;;;;;5098436;27;20574;-79
2023/03/28 01:24:45;;;;;;;9.55;1.83;;;3.60;99.90;;;;;;5103782;28;20048;-79
2023/03/28 01:27:27;;;;;;;11.55;1.73;;;2.50;99.90;;;;;;5133488;27;20430;-78
2023/03/28 01:30:12;;;;;;;9.65;2.03;;;2.30;99.90;;;;;;5125008;27;20035;-78
2023/03/28 01:32:53;;;;;;;10.65;1.70;;;3.60;99.90;;;;;;5114380;27;20035;-78
2023/03/28 01:35:54;;;;;;;10.43;1.90;;;1.90;99.90;;;;;;5134954;27;20407;-78
2023/03/28 01:38:36;;;;;;;13.85;2.13;;;2.30;99.90;;;;;;5117705;27;20039;-78
2023/03/28 01:41:17;;;;;;;13.55;2.15;;;2.30;99.90;;;;;;5134496;27;20031;-78
2023/03/28 01:43:54;;;;;;;10.82;2.55;;;2.20;99.90;;;;;;5102770;27;20051;-78
2023/03/28 01:46:27;;;;;;;10.32;2.03;;;2.20;99.90;;;;;;5119623;27;20482;-78
2023/03/28 01:49:02;;;;;;;10.18;1.90;;;2.10;99.90;;;;;;5115248;28;20039;-78
2023/03/28 01:51:30;;;;;;;14.07;1.98;;;2.30;99.90;;;;;;5125717;27;20383;-78
2023/03/28 01:54:28;;;;;;;14.55;2.47;;;2.20;99.90;;;;;;5135256;27;20506;-78
2023/03/28 01:57:09;;;;;;;9.63;2.00;;;2.40;99.90;;;;;;5093750;28;20107;-78
2023/03/28 02:00:00;;;;;;;9.80;1.95;;;2.40;99.90;;;;;;5137180;27;20035;-78
2023/03/28 02:02:37;;;;;;;11.15;2.03;;;2.30;99.90;;;;;;5098384;28;20044;-78
2023/03/28 02:05:09;;;;;;;10.70;2.00;;;2.30;99.90;;;;;;5097485;27;20047;-78
2023/03/28 02:07:37;;;;;;;11.18;1.83;;;2.30;99.90;;;;;;5099171;27;20055;-78
2023/03/28 02:10:05;;;;;;;16.95;2.15;;;2.50;99.90;;;;;;5095663;27;20075;-78
2023/03/28 02:12:40;;;;;;;7.72;2.00;;;2.20;99.90;;;;;;5108035;27;20035;-78
2023/03/28 02:15:11;;;;;;;8.18;2.45;;;2.90;99.90;;;;;;5098353;27;20049;-78
2023/03/28 02:17:41;;;;;;;13.55;2.00;;;2.20;99.90;;;;;;5113903;28;20110;-78
2023/03/28 02:20:13;;;;;;;10.73;1.90;;;2.00;99.90;;;;;;5108800;27;20031;-78
2023/03/28 02:23:01;;;;;;;7.50;1.63;;;2.30;99.90;;;;;;5110328;28;20209;-78
2023/03/28 02:25:28;;;;;;;11.70;2.13;;;2.10;99.90;;;;;;5130994;27;20042;-78
2023/03/28 02:28:00;;;;;;;8.88;1.60;;;2.10;99.90;;;;;;5092375;28;20035;-78
2023/03/28 02:30:26;;;;;;;9.38;1.77;;;1.90;99.90;;;;;;5089927;27;20285;-78
2023/03/28 02:33:01;;;;;;;9.50;2.03;;;2.10;99.90;;;;;;5123425;27;20032;-78
2023/03/28 02:35:45;;;;;;;8.13;2.28;;;2.10;99.90;;;;;;5093670;27;20499;-78
2023/03/28 02:38:24;;;;;;;12.23;1.83;;;1.50;99.90;;;;;;5133967;27;20455;-78
2023/03/28 02:41:11;;;;;;;9.98;2.17;;;2.10;99.90;;;;;;5091817;27;20082;-78
2023/03/28 02:43:40;;;;;;;11.82;1.83;;;2.10;99.90;;;;;;5107448;27;20551;-78
2023/03/28 02:46:21;;;;;;;7.70;1.73;;;2.10;99.90;;;;;;5131015;27;20577;-78
2023/03/28 02:49:25;;;;;;;9.82;1.80;;;2.00;99.90;;;;;;5111347;27;20050;-78
2023/03/28 02:51:57;;;;;;;13.82;2.03;;;2.10;99.90;;;;;;5110510;28;20046;-78
2023/03/28 02:54:34;;;;;;;12.20;1.85;;;2.10;99.90;;;;;;5111708;28;20122;-78
2023/03/28 02:57:24;;;;;;;6.75;1.77;;;2.10;99.90;;;;;;5114542;28;20043;-78
2023/03/28 02:59:58;;;;;;;8.48;1.77;;;2.10;99.90;;;;;;5097125;28;20039;-79
2023/03/28 03:02:27;;;;;;;8.93;1.90;;;2.00;99.90;;;;;;5099629;28;20387;-78
2023/03/28 03:04:56;;;;;;;10.75;2.00;;;2.20;99.90;;;;;;5110605;27;20035;-78
2023/03/28 03:07:22;;;;;;;11.30;1.85;;;1.90;99.90;;;;;;5133292;27;20022;-78
2023/03/28 03:09:52;;;;;;;12.98;2.40;;;2.00;99.90;;;;;;5092876;27;20030;-78
2023/03/28 03:12:20;;;;;;;22.70;2.55;;;1.80;99.90;;;;;;5095536;27;20039;-78
2023/03/28 03:14:49;;;;;;;8.10;2.25;;;2.10;99.90;;;;;;5105825;27;20435;-78
2023/03/28 03:17:16;;;;;;;11.40;2.28;;;1.90;99.90;;;;;;5092784;28;20080;-78
2023/03/28 03:19:42;;;;;;;10.05;2.03;;;1.90;99.90;;;;;;5120558;27;20510;-78
2023/03/28 03:22:08;;;;;;;7.75;1.90;;;3.30;99.90;;;;;;5088986;28;20035;-77
2023/03/28 03:24:35;;;;;;;7.78;1.65;;;1.90;99.90;;;;;;5082435;28;20371;-78
2023/03/28 03:27:01;;;;;;;12.02;2.03;;;2.00;99.90;;;;;;5082644;27;20031;-78
2023/03/28 03:29:27;;;;;;;10.00;1.95;;;2.00;99.90;;;;;;5122197;27;20556;-78
2023/03/28 03:31:52;;;;;;;12.35;2.00;;;3.10;99.90;;;;;;5100648;28;20128;-79
2023/03/28 03:34:19;;;;;;;13.70;2.10;;;2.00;99.90;;;;;;5091733;27;20062;-78
2023/03/28 03:36:45;;;;;;;8.40;1.55;;;2.10;99.90;;;;;;5103436;28;20043;-78
2023/03/28 03:39:11;;;;;;;10.65;1.98;;;2.00;99.90;;;;;;5099182;27;20126;-78
2023/03/28 03:41:36;;;;;;;9.13;1.60;;;1.90;99.90;;;;;;5105241;28;20040;-78
2023/03/28 03:44:02;;;;;;;10.70;2.20;;;2.00;99.90;;;;;;5090584;27;20079;-78
2023/03/28 03:46:27;;;;;;;8.02;1.95;;;3.80;99.90;;;;;;5105591;28;20031;-78
2023/03/28 03:48:54;;;;;;;8.30;1.95;;;2.10;99.90;;;;;;5115750;28;20067;-79
2023/03/28 03:51:19;;;;;;;11.15;2.08;;;3.40;99.90;;;;;;5096173;28;20036;-79
2023/03/28 03:53:45;;;;;;;8.02;1.90;;;1.90;99.90;;;;;;5128141;28;20038;-79
2023/03/28 03:56:11;;;;;;;8.77;1.98;;;1.90;99.90;;;;;;5109548;28;20403;-78
2023/03/28 03:58:38;;;;;;;6.95;1.60;;;1.70;99.90;;;;;;5111605;28;20150;-78
2023/03/28 04:01:04;;;;;;;9.95;1.70;;;2.10;99.90;;;;;;5120208;28;20052;-78
2023/03/28 04:03:30;;;;;;;7.45;1.65;;;2.00;99.90;;;;;;5107963;28;20471;-78
2023/03/28 04:05:56;;;;;;;14.38;2.13;;;3.40;99.90;;;;;;5087911;28;20112;-78
2023/03/28 04:08:22;;;;;;;10.75;1.73;;;3.40;99.90;;;;;;5109360;28;20810;-78
2023/03/28 04:10:48;;;;;;;9.30;2.03;;;1.70;99.90;;;;;;5107129;28;20066;-77
2023/03/28 04:13:16;;;;;;;13.13;2.03;;;1.90;99.90;;;;;;5131520;28;20035;-78
2023/03/28 04:15:42;;;;;;;9.73;1.90;;;1.80;99.90;;;;;;5101292;28;20126;-78
2023/03/28 04:18:07;;;;;;;9.35;1.73;;;1.60;99.90;;;;;;5106826;28;20114;-79
2023/03/28 04:20:33;;;;;;;6.20;1.60;;;1.50;99.90;;;;;;5085408;28;20036;-79
2023/03/28 04:22:59;;;;;;;7.30;1.52;;;1.70;99.90;;;;;;5090313;27;20040;-78
2023/03/28 04:25:25;;;;;;;8.07;2.40;;;1.80;99.90;;;;;;5126660;27;20061;-79
2023/03/28 04:27:53;;;;;;;9.48;1.75;;;1.80;99.90;;;;;;5133188;27;20073;-78
2023/03/28 04:30:19;;;;;;;9.75;1.70;;;1.80;99.90;;;;;;5097576;27;20047;-78
2023/03/28 04:32:49;;;;;;;10.38;1.90;;;2.00;99.90;;;;;;5131964;27;20061;-78
2023/03/28 04:35:15;;;;;;;9.68;1.85;;;1.80;99.90;;;;;;5093741;27;20040;-78
2023/03/28 04:37:46;;;;;;;7.53;1.60;;;2.00;99.90;;;;;;5113751;27;20036;-79
2023/03/28 04:40:14;;;;;;;3.78;1.40;;;2.00;99.90;;;;;;5093653;27;20040;-79
2023/03/28 04:42:40;;;;;;;12.00;1.90;;;2.10;99.90;;;;;;5113208;27;20036;-79
2023/03/28 04:45:08;;;;;;;14.45;2.00;;;2.10;99.90;;;;;;5135672;27;20107;-81
2023/03/28 04:47:36;;;;;;;13.27;2.33;;;2.10;99.90;;;;;;5131894;27;20407;-78
2023/03/28 04:50:02;;;;;;;9.52;2.10;;;2.00;99.90;;;;;;5127165;27;20075;-78
2023/03/28 04:52:28;;;;;;;8.45;1.73;;;2.00;99.90;;;;;;5127759;27;20028;-80
2023/03/28 04:54:58;;;;;;;5.45;1.77;;;2.20;99.90;;;;;;5100104;27;20042;-79
2023/03/28 04:57:31;;;;;;;6.78;1.67;;;2.20;99.90;;;;;;5128319;27;20038;-80
2023/03/28 04:59:59;;;;;;;6.88;1.85;;;2.20;99.90;;;;;;5105088;27;20499;-79
2023/03/28 05:02:25;;;;;;;10.25;2.15;;;2.10;99.90;;;;;;5090429;28;20428;-79
2023/03/28 05:04:52;;;;;;;10.65;1.70;;;2.00;99.90;;;;;;5119138;27;20172;-79
2023/03/28 05:07:18;;;;;;;11.25;1.63;;;2.20;99.90;;;;;;5124534;27;20039;-78
2023/03/28 05:09:46;;;;;;;9.35;1.83;;;2.00;99.90;;;;;;5133627;27;20184;-78
2023/03/28 05:12:13;;;;;;;10.70;2.08;;;2.20;99.90;;;;;;5093309;27;20031;-78
2023/03/28 05:14:40;;;;;;;9.07;2.03;;;2.20;99.90;;;;;;5096000;27;20402;-77
2023/03/28 05:17:08;;;;;;;8.57;1.90;;;2.40;99.90;;;;;;5098009;28;20316;-77
2023/03/28 05:19:34;;;;;;;10.98;2.00;;;2.20;99.90;;;;;;5127249;27;20399;-77
2023/03/28 05:22:00;;;;;;;8.90;2.15;;;2.00;99.90;;;;;;5131768;27;20035;-79
2023/03/28 05:24:25;;;;;;;4.97;1.58;;;1.90;99.90;;;;;;5106302;27;20465;-77
2023/03/28 05:26:51;;;;;;;11.95;1.90;;;2.10;99.90;;;;;;5116579;27;20126;-78
2023/03/28 05:29:16;;;;;;;4.38;1.85;;;2.10;99.90;;;;;;5108108;27;20035;-78
2023/03/28 05:31:42;;;;;;;9.15;1.65;;;2.10;99.90;;;;;;5110829;28;20167;-78
2023/03/28 05:34:08;;;;;;;7.05;2.00;;;2.10;99.90;;;;;;5106438;27;20381;-77
2023/03/28 05:36:33;;;;;;;11.07;1.90;;;2.10;99.90;;;;;;5111861;27;20084;-77
2023/03/28 05:38:59;;;;;;;8.50;2.35;;;2.10;99.90;;;;;;5123772;27;20039;-77
2023/03/28 05:41:24;;;;;;;16.27;2.40;;;3.70;99.90;;;;;;5112854;28;20103;-77
2023/03/28 05:43:51;;;;;;;6.95;1.90;;;2.00;99.90;;;;;;5109062;28;20031;-77
2023/03/28 05:46:17;;;;;;;10.48;2.08;;;1.70;99.90;;;;;;5096363;27;20435;-77
2023/03/28 05:48:42;;;;;;;6.43;1.60;;;2.30;99.90;;;;;;5091352;27;20067;-78
2023/03/28 05:51:08;;;;;;;8.43;1.98;;;2.40;99.90;;;;;;5091438;27;20039;-77
2023/03/28 05:53:34;;;;;;;10.15;2.55;;;2.40;99.90;;;;;;5095017;28;20499;-78
2023/03/28 05:55:59;;;;;;;7.25;2.00;;;2.20;99.90;;;;;;5119175;27;20035;-77
2023/03/28 05:58:25;;;;;;;9.25;2.33;;;2.50;99.90;;;;;;5135611;27;20031;-77
2023/03/28 06:00:51;;;;;;;12.98;2.03;;;3.50;99.90;;;;;;5131425;27;20398;-77
2023/03/28 06:03:17;;;;;;;11.07;1.98;;;2.50;99.90;;;;;;5113676;27;20175;-77
2023/03/28 06:05:43;;;;;;;8.25;2.63;;;2.60;99.90;;;;;;5094592;27;20042;-77
2023/03/28 06:08:09;;;;;;;14.85;2.30;;;2.60;99.90;;;;;;5133141;27;20039;-78
2023/03/28 06:10:35;;;;;;;10.23;1.98;;;2.40;99.90;;;;;;5120259;27;20494;-77
2023/03/28 06:13:01;;;;;;;7.97;2.28;;;2.50;99.90;;;;;;5125994;27;20043;-77
2023/03/28 06:15:26;;;;;;;9.18;2.10;;;3.80;99.90;;;;;;5108749;27;20062;-77
2023/03/28 06:17:52;;;;;;;7.13;2.00;;;2.60;99.90;;;;;;5110167;27;20081;-77
2023/03/28 06:20:17;;;;;;;7.22;2.47;;;2.40;99.90;;;;;;5123854;27;20559;-77
2023/03/28 06:22:43;;;;;;;8.10;2.30;;;2.60;99.90;;;;;;5115377;27;20044;-78
2023/03/28 06:25:09;;;;;;;10.55;2.20;;;2.70;99.90;;;;;;5105354;28;21891;-76
2023/03/28 06:27:35;;;;;;;10.05;2.55;;;2.70;99.90;;;;;;5095280;28;20031;-77
2023/03/28 06:30:04;;;;;;;9.20;2.30;;;2.80;99.90;;;;;;5105207;27;20075;-79
2023/03/28 06:32:30;;;;;;;13.13;2.97;;;2.70;99.90;;;;;;5105205;27;20034;-76
2023/03/28 06:34:55;;;;;;;11.55;2.60;;;2.80;99.90;;;;;;5101712;27;20039;-77
2023/03/28 06:37:21;;;;;;;8.32;2.53;;;3.10;99.90;;;;;;5094442;27;20039;-77
2023/03/28 06:39:49;;;;;;;8.18;2.40;;;2.70;99.90;;;;;;5097827;27;20118;-76
2023/03/28 06:42:15;;;;;;;10.20;2.60;;;2.80;99.90;;;;;;5089692;27;20397;-76
2023/03/28 06:44:41;;;;;;;11.10;2.97;;;2.90;99.90;;;;;;5108758;27;20091;-76
2023/03/28 06:47:06;;;;;;;14.35;2.80;;;2.80;99.90;;;;;;5108905;28;20039;-75
2023/03/28 06:49:32;;;;;;;12.55;2.75;;;3.00;99.90;;;;;;5105986;28;20042;-75
2023/03/28 06:51:57;;;;;;;10.50;3.08;;;2.90;99.90;;;;;;5110399;27;20054;-77
2023/03/28 06:54:24;;;;;;;10.30;3.10;;;3.00;99.90;;;;;;5120508;27;20071;-76
2023/03/28 06:56:49;;;;;;;11.68;3.35;;;3.10;99.90;;;;;;5111049;27;20032;-76
2023/03/28 06:59:16;;;;;;;10.77;3.10;;;3.30;99.90;;;;;;5133529;27;20053;-76
2023/03/28 07:01:41;;;;;;;13.18;3.88;;;3.10;99.90;;;;;;5091944;27;20477;-76
2023/03/28 07:04:07;;;;;;;10.13;3.25;;;2.90;99.90;;;;;;5097503;27;20035;-76
2023/03/28 07:06:33;;;;;;;13.13;3.28;;;2.90;99.90;;;;;;5101228;27;20364;-76
2023/03/28 07:08:59;;;;;;;10.32;3.63;;;3.00;99.90;;;;;;5117516;27;20484;-76
2023/03/28 07:11:25;;;;;;;9.43;2.90;;;3.00;99.90;;;;;;5119781;27;20054;-76
2023/03/28 07:13:51;;;;;;;8.35;3.17;;;2.40;99.90;;;;;;5107087;27;20039;-76
2023/03/28 07:16:16;;;;;;;14.90;3.92;;;3.00;99.90;;;;;;5099620;27;20047;-76
2023/03/28 07:18:43;;;;;;;13.05;3.70;;;3.00;99.90;;;;;;5112078;27;20039;-77
2023/03/28 07:21:14;;;;;;;11.45;4.03;;;2.90;99.90;;;;;;5092335;27;20039;-76
2023/03/28 07:23:40;;;;;;;13.35;3.80;;;2.70;99.90;;;;;;5112284;28;20027;-76
2023/03/28 07:26:09;;;;;;;11.35;3.72;;;3.00;99.90;;;;;;5096761;27;20031;-76
2023/03/28 07:28:35;;;;;;;13.63;3.67;;;3.00;99.90;;;;;;5089801;27;20035;-76
2023/03/28 07:31:03;;;;;;;11.55;3.83;;;3.00;99.90;;;;;;5095540;27;20487;-76
2023/03/28 07:33:29;;;;;;;11.13;3.30;;;3.00;99.90;;;;;;5106372;28;20497;-76
2023/03/28 07:35:55;;;;;;;11.73;3.70;;;3.10;99.90;;;;;;5093085;27;20047;-77
2023/03/28 07:38:21;;;;;;;9.75;3.58;;;3.20;99.90;;;;;;5111888;27;20533;-76
2023/03/28 07:40:46;;;;;;;10.60;3.10;;;3.00;99.90;;;;;;5108500;27;20039;-76
2023/03/28 07:43:12;;;;;;;10.35;3.45;;;3.30;99.90;;;;;;5088196;28;20539;-77
2023/03/28 07:45:38;;;;;;;12.13;2.85;;;4.60;99.90;;;;;;5103853;28;20036;-76
2023/03/28 07:48:04;;;;;;;10.15;3.05;;;3.30;99.90;;;;;;5093482;28;20027;-76
2023/03/28 07:50:30;;;;;;;11.30;3.00;;;3.50;99.90;;;;;;5109847;28;20087;-76
2023/03/28 07:52:56;;;;;;;10.73;2.80;;;3.60;99.90;;;;;;5126077;28;20427;-76
2023/03/28 07:55:25;;;;;;;13.15;3.67;;;3.70;99.90;;;;;;5124987;28;20046;-76
2023/03/28 07:57:52;;;;;;;9.90;2.60;;;3.80;99.90;;;;;;5115424;27;20054;-76
2023/03/28 08:00:21;;;;;;;11.13;2.90;;;3.80;99.90;;;;;;5099711;27;20403;-76
2023/03/28 08:02:47;;;;;;;10.00;2.67;;;4.00;99.90;;;;;;5109723;27;20120;-76
2023/03/28 08:05:12;;;;;;;9.70;2.78;;;4.10;99.90;;;;;;5098397;27;20039;-77
2023/03/28 08:07:40;;;;;;;13.70;2.60;;;4.20;99.90;;;;;;5115467;28;20032;-77
2023/03/28 08:10:08;;;;;;;14.32;2.80;;;5.00;99.90;;;;;;5099469;27;20124;-76
2023/03/28 08:12:33;;;;;;;10.13;3.10;;;4.40;99.90;;;;;;5091675;27;20644;-76
2023/03/28 08:14:59;;;;;;;10.10;2.70;;;4.50;99.90;;;;;;5129335;27;20031;-77
2023/03/28 08:17:25;;;;;;;11.75;2.70;;;4.40;99.90;;;;;;5093683;28;20403;-77
2023/03/28 08:19:51;;;;;;;9.07;2.78;;;5.30;99.90;;;;;;5113239;27;20075;-77
2023/03/28 08:22:17;;;;;;;10.10;3.00;;;5.90;99.90;;;;;;5111929;27;20487;-77
2023/03/28 08:24:43;;;;;;;8.30;2.55;;;4.60;99.90;;;;;;5089371;28;20089;-77
2023/03/28 08:27:08;;;;;;;13.95;2.72;;;6.10;99.90;;;;;;5102503;27;20062;-77
2023/03/28 08:29:34;;;;;;;10.93;2.75;;;4.90;99.90;;;;;;5087253;27;20039;-77
2023/03/28 08:32:00;;;;;;;6.53;2.33;;;5.20;99.90;;;;;;5094434;27;20043;-76
2023/03/28 08:34:26;;;;;;;6.60;2.17;;;4.90;99.90;;;;;;5092576;28;20062;-76
2023/03/28 08:36:52;;;;;;;8.77;2.08;;;4.90;99.90;;;;;;5089025;28;20487;-76
2023/03/28 08:39:18;;;;;;;9.32;1.90;;;5.20;99.90;;;;;;5098729;27;20080;-77
2023/03/28 08:42:38;;;;;;;6.47;1.90;;;5.20;99.90;;;;;;5094314;27;20043;-77
2023/03/28 08:45:09;;;;;;;6.78;1.90;;;5.30;99.90;;;;;;5028613;27;20509;-77
2023/03/28 08:47:59;;;;;;;5.35;1.50;;;6.70;99.90;;;;;;5092168;28;20089;-77
2023/03/28 08:50:32;;;;;;;9.52;1.95;;;5.40;99.90;;;;;;5085168;28;20031;-77
2023/03/28 08:52:58;;;;;;;6.30;1.40;;;5.50;99.90;;;;;;5096047;28;20043;-77
2023/03/28 08:55:35;;;;;;;5.55;1.30;;;5.40;99.90;;;;;;5095043;27;20039;-77
2023/03/28 08:58:02;;;;;;;10.18;1.40;;;5.70;99.90;;;;;;5090913;27;20047;-77
2023/03/28 09:00:30;;;;;;;5.93;1.60;;;6.80;99.90;;;;;;5097044;28;20039;-77
2023/03/28 09:02:57;;;;;;;12.20;1.40;;;5.70;99.90;;;;;;5097936;27;20057;-77
2023/03/28 09:05:42;;;;;;;5.80;1.17;;;5.80;99.90;;;;;;5118156;27;20031;-77
2023/03/28 09:08:42;;;;;;;6.53;1.42;;;5.90;99.90;;;;;;5127027;27;20088;-77
2023/03/28 09:11:16;;;;;;;6.63;1.40;;;6.00;99.90;;;;;;5119746;22;20047;-74
2023/03/28 09:13:42;;;;;;;5.57;1.40;;;6.00;99.90;;;;;;5104316;28;20081;-74
2023/03/28 09:16:17;;;;;;;4.72;1.30;;;6.00;99.90;;;;;;5096721;27;20067;-74
2023/03/28 09:19:05;;;;;;;5.80;1.20;;;6.10;99.90;;;;;;5100113;28;20597;-74
2023/03/28 09:21:50;;;;;;;6.50;1.35;;;6.10;99.90;;;;;;5092716;28;20514;-74
2023/03/28 09:24:54;;;;;;;9.02;1.35;;;6.20;99.90;;;;;;5093963;28;20441;-74
2023/03/28 09:27:54;;;;;;;5.05;1.30;;;6.30;99.90;;;;;;5088257;28;20089;-74
2023/03/28 09:30:33;;;;;;;4.20;1.30;;;6.40;99.90;;;;;;5066379;28;20047;-74
2023/03/28 09:33:04;;;;;;;5.75;1.27;;;6.60;99.90;;;;;;5090569;28;20039;-74
2023/03/28 09:35:31;;;;;;;5.70;1.37;;;6.80;99.90;;;;;;5078745;28;20027;-74
2023/03/28 09:38:02;;;;;;;3.80;1.23;;;6.90;99.90;;;;;;5091477;28;20313;-74
2023/03/28 09:40:33;;;;;;;2.42;1.00;;;7.10;99.90;;;;;;5081587;28;20028;-74
2023/03/28 09:43:11;;;;;;;5.68;1.40;;;7.20;99.90;;;;;;5106810;28;20122;-74
2023/03/28 09:46:08;;;;;;;3.80;2.00;;;7.30;99.90;;;;;;5083484;28;20418;-74
2023/03/28 09:48:38;;;;;;;5.78;1.65;;;7.40;99.90;;;;;;5079289;28;20044;-74
2023/03/28 09:51:06;;;;;;;4.30;1.42;;;7.40;99.90;;;;;;5085367;28;20036;-74
2023/03/28 09:53:35;;;;;;;6.53;1.65;;;7.50;99.90;;;;;;5094469;28;20132;-74
2023/03/28 09:56:22;;;;;;;5.70;1.50;;;7.50;99.90;;;;;;5082203;28;20044;-74
2023/03/28 09:58:51;;;;;;;4.50;1.23;;;7.60;99.90;;;;;;5086066;28;20457;-74
2023/03/28 10:01:44;;;;;;;4.43;1.33;;;7.70;99.90;;;;;;5086212;28;20047;-74
2023/03/28 10:04:20;;;;;;;5.65;1.60;;;7.70;99.90;;;;;;5080597;28;20075;-74
2023/03/28 10:06:47;;;;;;;3.10;1.10;;;7.80;99.90;;;;;;5090058;28;20137;-74
2023/03/28 10:09:27;;;;;;;6.50;1.67;;;7.80;99.90;;;;;;5078295;28;20032;-74
2023/03/28 10:11:54;;;;;;;7.13;2.17;;;7.90;99.90;;;;;;5109285;28;20383;-74
2023/03/28 10:14:40;;;;;;;6.35;1.70;;;8.00;99.90;;;;;;5088669;28;20043;-74
2023/03/28 10:17:18;;;;;;;8.23;2.38;;;8.00;99.90;;;;;;5091578;28;20039;-74
2023/03/28 10:19:46;;;;;;;9.40;2.38;;;8.10;99.90;;;;;;5074811;28;20048;-74
2023/03/28 10:22:14;;;;;;;6.18;2.05;;;8.10;99.90;;;;;;5092003;28;20483;-74
2023/03/28 10:24:40;;;;;;;6.88;2.00;;;8.10;99.90;;;;;;5087814;28;20070;-74
2023/03/28 10:27:33;;;;;;;6.30;2.03;;;8.10;99.90;;;;;;5109790;28;20036;-74
2023/03/28 10:30:11;;;;;;;5.65;2.22;;;8.00;99.90;;;;;;5083452;28;20055;-74
2023/03/28 10:32:36;;;;;;;5.20;1.90;;;7.90;99.90;;;;;;5086900;28;20053;-74
2023/03/28 10:35:31;;;;;;;7.20;2.20;;;7.80;99.90;;;;;;5088492;28;20415;-74
2023/03/28 10:38:02;;;;;;;9.57;2.20;;;8.00;99.90;;;;;;5085012;28;20652;-74
2023/03/28 10:40:29;;;;;;;4.13;2.00;;;8.10;99.90;;;;;;5076136;28;20127;-74
2023/03/28 10:42:56;;;;;;;4.95;2.22;;;8.30;99.90;;;;;;5071746;28;20047;-74
2023/03/28 10:45:38;;;;;;;7.07;2.17;;;8.50;99.90;;;;;;5082631;28;20035;-74
2023/03/28 10:48:19;;;;;;;10.88;2.28;;;8.80;99.90;;;;;;5089225;28;20568;-74
2023/03/28 10:50:51;;;;;;;6.25;2.40;;;9.00;99.90;;;;;;5080347;28;20036;-74
2023/03/28 10:53:36;;;;;;;10.88;2.38;;;9.20;99.90;;;;;;5093763;28;20066;-74
2023/03/28 10:56:19;;;;;;;7.15;2.65;;;9.20;99.90;;;;;;5088939;28;20058;-74
2023/03/28 10:59:16;;;;;;;7.20;2.30;;;9.00;99.90;;;;;;5077754;28;20514;-74
2023/03/28 11:02:03;;;;;;;8.90;2.83;;;8.80;99.90;;;;;;5011773;28;20067;-74
2023/03/28 11:04:51;;;;;;;9.40;2.50;;;8.60;99.90;;;;;;5071022;28;20131;-74
2023/03/28 11:07:27;;;;;;;7.68;2.40;;;8.40;99.90;;;;;;5068684;28;20495;-73
2023/03/28 11:10:14;;;;;;;6.72;2.53;;;8.30;99.90;;;;;;5073666;28;20036;-73
2023/03/28 11:12:50;;;;;;;8.63;2.60;;;8.20;99.90;;;;;;5091551;28;20498;-73
2023/03/28 11:15:28;;;;;;;10.73;2.60;;;8.20;99.90;;;;;;5081830;28;20111;-73
2023/03/28 11:18:15;;;;;;;7.15;2.65;;;8.10;99.90;;;;;;5050952;28;20117;-73
2023/03/28 11:20:53;;;;;;;8.38;2.63;;;8.10;99.90;;;;;;5088935;28;20047;-73
2023/03/28 11:23:27;;;;;;;8.93;2.63;;;8.20;99.90;;;;;;5080472;28;20048;-73
2023/03/28 11:26:11;;;;;;;8.05;2.50;;;8.20;99.90;;;;;;5087035;28;20031;-73
2023/03/28 11:28:42;;;;;;;7.82;2.05;;;8.30;99.90;;;;;;5080664;28;20032;-73
2023/03/28 11:31:16;;;;;;;6.80;2.47;;;8.40;99.90;;;;;;5085255;28;20055;-73
2023/03/28 11:34:10;;;;;;;6.88;2.50;;;8.50;99.90;;;;;;5070868;28;20044;-73
2023/03/28 11:36:57;;;;;;;6.20;1.98;;;8.50;99.90;;;;;;5081519;28;20064;-73
2023/03/28 11:39:52;;;;;;;6.82;2.17;;;8.50;99.90;;;;;;5093001;28;20031;-73
2023/03/28 11:42:41;;;;;;;6.15;2.25;;;8.60;99.90;;;;;;5081307;28;20050;-73
2023/03/28 11:45:30;;;;;;;6.20;2.10;;;8.70;99.90;;;;;;5098083;28;20048;-73
2023/03/28 11:48:04;;;;;;;7.22;1.80;;;8.70;99.90;;;;;;5084572;28;20039;-73
2023/03/28 11:50:53;;;;;;;7.43;2.05;;;8.80;99.90;;;;;;5068640;28;20396;-74
2023/03/28 11:53:24;;;;;;;5.22;2.00;;;8.90;99.90;;;;;;5066516;28;20062;-74
2023/03/28 11:55:58;;;;;;;5.97;2.15;;;9.00;99.90;;;;;;5076739;28;20032;-74
2023/03/28 11:58:27;;;;;;;6.47;2.47;;;9.20;99.90;;;;;;5074593;28;20035;-74
2023/03/28 12:01:10;;;;;;;6.22;2.53;;;9.40;98.80;;;;;;5074229;28;20050;-74
2023/03/28 12:04:04;;;;;;;6.07;2.13;;;9.50;98.60;;;;;;5070952;28;20038;-74
2023/03/28 12:06:52;;;;;;;5.15;2.20;;;9.60;98.90;;;;;;5074952;28;20467;-74
2023/03/28 12:09:23;;;;;;;6.35;2.60;;;9.60;98.60;;;;;;5082076;28;20028;-74
2023/03/28 12:12:02;;;;;;;7.15;2.15;;;9.70;99.00;;;;;;5057694;28;20081;-74
2023/03/28 12:14:44;;;;;;;5.40;2.20;;;9.70;99.00;;;;;;5074613;28;20046;-74
2023/03/28 12:17:22;;;;;;;12.27;2.58;;;9.70;98.20;;;;;;5076149;28;20048;-74
2023/03/28 12:19:48;;;;;;;7.50;2.10;;;9.70;98.30;;;;;;5058494;28;20078;-74
2023/03/28 12:22:25;;;;;;;8.25;2.50;;;9.70;98.60;;;;;;5086933;28;20083;-74
2023/03/28 12:25:17;;;;;;;8.65;2.50;;;9.70;98.40;;;;;;5083431;28;20048;-74
2023/03/28 12:27:48;;;;;;;7.80;2.10;;;9.70;98.30;;;;;;5091395;28;20031;-74
2023/03/28 12:30:24;;;;;;;6.85;1.95;;;9.60;98.40;;;;;;5101318;28;20075;-74
2023/03/28 12:33:12;;;;;;;6.82;2.55;;;9.60;97.50;;;;;;5073107;28;20109;-74
2023/03/28 12:36:05;;;;;;;4.45;2.17;;;9.50;96.00;;;;;;5069874;28;20044;-74
2023/03/28 12:38:45;;;;;;;5.75;2.10;;;9.40;96.20;;;;;;5084595;28;20036;-74
2023/03/28 12:41:16;;;;;;;8.98;2.50;;;9.20;96.90;;;;;;5089390;28;20039;-74
2023/03/28 12:43:47;;;;;;;7.28;2.50;;;9.20;97.70;;;;;;5072924;28;20416;-74
2023/03/28 12:46:17;;;;;;;9.23;3.05;;;9.10;97.80;;;;;;5085696;28;20379;-74
2023/03/28 12:49:02;;;;;;;8.05;2.45;;;9.00;98.00;;;;;;5086480;28;20054;-74
2023/03/28 12:51:45;;;;;;;7.22;2.63;;;9.00;98.40;;;;;;5082763;28;20080;-74
2023/03/28 12:54:13;;;;;;;;;;;9.00;98.40;;;;;;5086625;28;20074;-74
2023/03/28 12:56:39;;;;;;;8.15;2.78;;;9.00;97.80;;;;;;5085648;28;20291;-74
2023/03/28 12:59:34;;;;;;;9.15;2.75;;;8.90;98.00;;;;;;5088010;28;20052;-74
2023/03/28 13:02:08;;;;;;;6.75;2.65;;;9.00;98.70;;;;;;5074725;28;20077;-74
2023/03/28 13:05:08;;;;;;;7.35;2.85;;;9.00;98.50;;;;;;5089544;28;20487;-74
2023/03/28 13:07:59;;;;;;;6.55;2.35;;;9.10;97.80;;;;;;5075934;28;20040;-74
2023/03/28 13:10:41;;;;;;;11.50;3.20;;;9.20;98.10;;;;;;5058014;28;20040;-74
2023/03/28 13:13:22;;;;;;;7.10;2.50;;;9.10;97.50;;;;;;5086622;28;20040;-74
2023/03/28 13:15:59;;;;;;;7.55;2.50;;;9.20;97.30;;;;;;5077388;28;20103;-74
2023/03/28 13:18:27;;;;;;;5.53;2.42;;;9.20;97.90;;;;;;5096639;28;20046;-74
2023/03/28 13:20:53;;;;;;;7.93;2.67;;;9.20;97.80;;;;;;5090922;28;20126;-74